Aviation Digital Data Service (ADDS)

Output produced by METARs form (1427 UTC 10 July 2020)
found at http://www.aviationweather.gov/metar/data/
 
KTLH 101353Z 32009KT 10SM FEW031 FEW250 29/25 A2997 RMK AO2 SLP147 T02940250
KTLH 101120Z 1012/1112 31004KT P6SM SCT080 
     FM101800 31008KT P6SM VCTS SCT040CB 
     FM102100 VRB04KT P6SM SCT100 
     PROB30 1021/1024 5SM TSRA BKN100CB 
     FM110000 27003KT P6SM SCT150